sensor_id;sensor_type;location;lat;lon;timestamp;P1;durP1;ratioP1;P2;durP2;ratioP2
54909;SDS011;63189;51.240;9.964;2024-02-16T00:00:43;6.28;;;2.30;;
54909;SDS011;63189;51.240;9.964;2024-02-16T00:03:09;6.72;;;2.10;;
54909;SDS011;63189;51.240;9.964;2024-02-16T00:05:35;5.45;;;2.30;;
54909;SDS011;63189;51.240;9.964;2024-02-16T00:08:01;4.47;;;2.42;;
54909;SDS011;63189;51.240;9.964;2024-02-16T00:10:28;3.88;;;2.38;;
54909;SDS011;63189;51.240;9.964;2024-02-16T00:12:53;6.03;;;2.42;;
54909;SDS011;63189;51.240;9.964;2024-02-16T00:15:18;4.90;;;2.00;;
54909;SDS011;63189;51.240;9.964;2024-02-16T00:17:44;3.47;;;1.92;;
54909;SDS011;63189;51.240;9.964;2024-02-16T00:20:09;5.20;;;2.30;;
54909;SDS011;63189;51.240;9.964;2024-02-16T00:22:37;6.13;;;2.30;;
54909;SDS011;63189;51.240;9.964;2024-02-16T00:25:03;5.00;;;2.25;;
54909;SDS011;63189;51.240;9.964;2024-02-16T00:27:28;5.70;;;1.88;;
54909;SDS011;63189;51.240;9.964;2024-02-16T00:29:54;6.97;;;2.35;;
54909;SDS011;63189;51.240;9.964;2024-02-16T00:32:19;5.28;;;2.30;;
54909;SDS011;63189;51.240;9.964;2024-02-16T00:34:45;4.22;;;1.98;;
54909;SDS011;63189;51.240;9.964;2024-02-16T00:37:10;7.05;;;2.30;;
54909;SDS011;63189;51.240;9.964;2024-02-16T00:39:37;7.32;;;2.10;;
54909;SDS011;63189;51.240;9.964;2024-02-16T00:42:05;6.25;;;2.30;;
54909;SDS011;63189;51.240;9.964;2024-02-16T00:44:31;5.30;;;2.13;;
54909;SDS011;63189;51.240;9.964;2024-02-16T00:46:57;4.35;;;1.80;;
54909;SDS011;63189;51.240;9.964;2024-02-16T00:49:23;6.57;;;2.30;;
54909;SDS011;63189;51.240;9.964;2024-02-16T00:51:48;3.45;;;2.00;;
54909;SDS011;63189;51.240;9.964;2024-02-16T00:54:15;6.05;;;2.67;;
54909;SDS011;63189;51.240;9.964;2024-02-16T00:56:41;6.47;;;2.30;;
54909;SDS011;63189;51.240;9.964;2024-02-16T00:59:06;4.55;;;2.20;;
54909;SDS011;63189;51.240;9.964;2024-02-16T01:01:34;7.20;;;2.88;;
54909;SDS011;63189;51.240;9.964;2024-02-16T01:04:00;3.83;;;2.05;;
54909;SDS011;63189;51.240;9.964;2024-02-16T01:06:26;5.63;;;2.40;;
54909;SDS011;63189;51.240;9.964;2024-02-16T01:08:51;4.75;;;2.20;;
54909;SDS011;63189;51.240;9.964;2024-02-16T01:11:16;4.38;;;2.03;;
54909;SDS011;63189;51.240;9.964;2024-02-16T01:13:42;3.80;;;1.73;;
54909;SDS011;63189;51.240;9.964;2024-02-16T01:16:08;5.13;;;2.40;;
54909;SDS011;63189;51.240;9.964;2024-02-16T01:18:35;3.25;;;2.35;;
54909;SDS011;63189;51.240;9.964;2024-02-16T01:21:02;4.90;;;2.50;;
54909;SDS011;63189;51.240;9.964;2024-02-16T01:23:28;4.35;;;2.53;;
54909;SDS011;63189;51.240;9.964;2024-02-16T01:25:54;3.35;;;2.20;;
54909;SDS011;63189;51.240;9.964;2024-02-16T01:28:19;5.68;;;2.17;;
54909;SDS011;63189;51.240;9.964;2024-02-16T01:30:44;5.22;;;2.38;;
54909;SDS011;63189;51.240;9.964;2024-02-16T01:33:09;5.68;;;2.28;;
54909;SDS011;63189;51.240;9.964;2024-02-16T01:35:35;3.80;;;2.50;;
54909;SDS011;63189;51.240;9.964;2024-02-16T01:38:01;5.53;;;2.40;;
54909;SDS011;63189;51.240;9.964;2024-02-16T01:40:27;4.57;;;2.53;;
54909;SDS011;63189;51.240;9.964;2024-02-16T01:42:53;4.95;;;2.30;;
54909;SDS011;63189;51.240;9.964;2024-02-16T01:45:19;5.55;;;2.47;;
54909;SDS011;63189;51.240;9.964;2024-02-16T01:47:45;7.03;;;2.60;;
54909;SDS011;63189;51.240;9.964;2024-02-16T01:50:13;6.38;;;2.70;;
54909;SDS011;63189;51.240;9.964;2024-02-16T01:52:39;3.85;;;2.42;;
54909;SDS011;63189;51.240;9.964;2024-02-16T01:55:05;6.05;;;2.60;;
54909;SDS011;63189;51.240;9.964;2024-02-16T01:57:34;3.45;;;2.50;;
54909;SDS011;63189;51.240;9.964;2024-02-16T01:59:59;5.30;;;2.50;;
54909;SDS011;63189;51.240;9.964;2024-02-16T02:02:24;5.22;;;2.70;;
54909;SDS011;63189;51.240;9.964;2024-02-16T02:04:50;5.70;;;2.47;;
54909;SDS011;63189;51.240;9.964;2024-02-16T02:07:16;7.65;;;2.58;;
54909;SDS011;63189;51.240;9.964;2024-02-16T02:09:41;5.00;;;2.20;;
54909;SDS011;63189;51.240;9.964;2024-02-16T02:12:08;5.13;;;2.30;;
54909;SDS011;63189;51.240;9.964;2024-02-16T02:14:34;5.18;;;2.20;;
54909;SDS011;63189;51.240;9.964;2024-02-16T02:17:00;5.75;;;2.38;;
54909;SDS011;63189;51.240;9.964;2024-02-16T02:19:26;4.18;;;2.67;;
54909;SDS011;63189;51.240;9.964;2024-02-16T02:21:52;6.07;;;2.55;;
54909;SDS011;63189;51.240;9.964;2024-02-16T02:24:17;4.85;;;2.65;;
54909;SDS011;63189;51.240;9.964;2024-02-16T02:26:42;4.95;;;2.78;;
54909;SDS011;63189;51.240;9.964;2024-02-16T02:29:08;8.80;;;2.30;;
54909;SDS011;63189;51.240;9.964;2024-02-16T02:31:33;3.70;;;2.60;;
54909;SDS011;63189;51.240;9.964;2024-02-16T02:33:59;6.50;;;2.72;;
54909;SDS011;63189;51.240;9.964;2024-02-16T02:36:25;6.20;;;2.47;;
54909;SDS011;63189;51.240;9.964;2024-02-16T02:38:50;4.85;;;2.33;;
54909;SDS011;63189;51.240;9.964;2024-02-16T02:41:16;4.00;;;2.55;;
54909;SDS011;63189;51.240;9.964;2024-02-16T02:43:44;5.20;;;2.47;;
54909;SDS011;63189;51.240;9.964;2024-02-16T02:46:09;6.82;;;2.53;;
54909;SDS011;63189;51.240;9.964;2024-02-16T02:48:40;5.28;;;2.88;;
54909;SDS011;63189;51.240;9.964;2024-02-16T02:51:05;3.88;;;2.40;;
54909;SDS011;63189;51.240;9.964;2024-02-16T02:53:30;6.13;;;3.10;;
54909;SDS011;63189;51.240;9.964;2024-02-16T02:55:56;6.22;;;2.80;;
54909;SDS011;63189;51.240;9.964;2024-02-16T02:58:21;6.13;;;2.67;;
54909;SDS011;63189;51.240;9.964;2024-02-16T03:00:46;5.85;;;3.03;;
54909;SDS011;63189;51.240;9.964;2024-02-16T03:03:12;7.03;;;3.20;;
54909;SDS011;63189;51.240;9.964;2024-02-16T03:05:40;6.25;;;2.88;;
54909;SDS011;63189;51.240;9.964;2024-02-16T03:08:07;5.18;;;3.15;;
54909;SDS011;63189;51.240;9.964;2024-02-16T03:10:34;6.20;;;2.80;;
54909;SDS011;63189;51.240;9.964;2024-02-16T03:13:00;7.47;;;3.60;;
54909;SDS011;63189;51.240;9.964;2024-02-16T03:15:26;5.47;;;3.10;;
54909;SDS011;63189;51.240;9.964;2024-02-16T03:17:51;6.43;;;2.88;;
54909;SDS011;63189;51.240;9.964;2024-02-16T03:20:17;10.13;;;3.38;;
54909;SDS011;63189;51.240;9.964;2024-02-16T03:22:42;4.85;;;3.00;;
54909;SDS011;63189;51.240;9.964;2024-02-16T03:25:08;9.75;;;3.58;;
54909;SDS011;63189;51.240;9.964;2024-02-16T03:27:34;4.40;;;3.00;;
54909;SDS011;63189;51.240;9.964;2024-02-16T03:29:59;8.98;;;3.97;;
54909;SDS011;63189;51.240;9.964;2024-02-16T03:32:25;5.93;;;3.28;;
54909;SDS011;63189;51.240;9.964;2024-02-16T03:34:51;5.07;;;2.80;;
54909;SDS011;63189;51.240;9.964;2024-02-16T03:37:16;6.43;;;3.60;;
54909;SDS011;63189;51.240;9.964;2024-02-16T03:39:41;6.07;;;2.95;;
54909;SDS011;63189;51.240;9.964;2024-02-16T03:42:08;6.97;;;3.45;;
54909;SDS011;63189;51.240;9.964;2024-02-16T03:44:34;5.00;;;2.88;;
54909;SDS011;63189;51.240;9.964;2024-02-16T03:46:59;5.85;;;3.15;;
54909;SDS011;63189;51.240;9.964;2024-02-16T03:49:25;4.57;;;3.00;;
54909;SDS011;63189;51.240;9.964;2024-02-16T03:51:52;5.10;;;2.85;;
54909;SDS011;63189;51.240;9.964;2024-02-16T03:54:18;4.13;;;2.70;;
54909;SDS011;63189;51.240;9.964;2024-02-16T03:56:43;4.65;;;2.80;;
54909;SDS011;63189;51.240;9.964;2024-02-16T03:59:10;6.57;;;3.17;;
54909;SDS011;63189;51.240;9.964;2024-02-16T04:01:35;4.63;;;2.85;;
54909;SDS011;63189;51.240;9.964;2024-02-16T04:04:01;6.82;;;3.10;;
54909;SDS011;63189;51.240;9.964;2024-02-16T04:06:28;4.88;;;3.30;;
54909;SDS011;63189;51.240;9.964;2024-02-16T04:08:53;7.40;;;3.40;;
54909;SDS011;63189;51.240;9.964;2024-02-16T04:11:19;6.50;;;3.85;;
54909;SDS011;63189;51.240;9.964;2024-02-16T04:13:44;4.60;;;3.42;;
54909;SDS011;63189;51.240;9.964;2024-02-16T04:16:10;6.63;;;3.38;;
54909;SDS011;63189;51.240;9.964;2024-02-16T04:18:35;5.82;;;3.08;;
54909;SDS011;63189;51.240;9.964;2024-02-16T04:21:00;5.78;;;3.33;;
54909;SDS011;63189;51.240;9.964;2024-02-16T04:23:26;8.40;;;3.53;;
54909;SDS011;63189;51.240;9.964;2024-02-16T04:25:51;7.97;;;3.75;;
54909;SDS011;63189;51.240;9.964;2024-02-16T04:28:17;7.18;;;3.53;;
54909;SDS011;63189;51.240;9.964;2024-02-16T04:30:43;6.68;;;3.72;;
54909;SDS011;63189;51.240;9.964;2024-02-16T04:33:09;5.30;;;3.47;;
54909;SDS011;63189;51.240;9.964;2024-02-16T04:35:34;8.02;;;3.85;;
54909;SDS011;63189;51.240;9.964;2024-02-16T04:37:59;6.00;;;3.40;;
54909;SDS011;63189;51.240;9.964;2024-02-16T04:40:25;8.10;;;3.75;;
54909;SDS011;63189;51.240;9.964;2024-02-16T04:42:50;6.95;;;3.95;;
54909;SDS011;63189;51.240;9.964;2024-02-16T04:45:16;7.25;;;4.72;;
54909;SDS011;63189;51.240;9.964;2024-02-16T04:47:41;7.97;;;4.20;;
54909;SDS011;63189;51.240;9.964;2024-02-16T04:50:06;5.88;;;3.85;;
54909;SDS011;63189;51.240;9.964;2024-02-16T04:52:36;5.20;;;3.65;;
54909;SDS011;63189;51.240;9.964;2024-02-16T04:55:03;8.07;;;4.43;;
54909;SDS011;63189;51.240;9.964;2024-02-16T04:57:28;5.40;;;3.90;;
54909;SDS011;63189;51.240;9.964;2024-02-16T04:59:54;9.82;;;4.35;;
54909;SDS011;63189;51.240;9.964;2024-02-16T05:02:19;6.05;;;3.80;;
54909;SDS011;63189;51.240;9.964;2024-02-16T05:04:44;6.53;;;3.83;;
54909;SDS011;63189;51.240;9.964;2024-02-16T05:07:10;6.65;;;4.00;;
54909;SDS011;63189;51.240;9.964;2024-02-16T05:09:35;6.95;;;4.10;;
54909;SDS011;63189;51.240;9.964;2024-02-16T05:12:00;7.82;;;4.72;;
54909;SDS011;63189;51.240;9.964;2024-02-16T05:14:25;6.38;;;4.20;;
54909;SDS011;63189;51.240;9.964;2024-02-16T05:16:51;8.60;;;4.70;;
54909;SDS011;63189;51.240;9.964;2024-02-16T05:19:16;5.45;;;3.88;;
54909;SDS011;63189;51.240;9.964;2024-02-16T05:21:42;7.15;;;3.92;;
54909;SDS011;63189;51.240;9.964;2024-02-16T05:24:07;7.70;;;4.10;;
54909;SDS011;63189;51.240;9.964;2024-02-16T05:26:32;8.95;;;4.22;;
54909;SDS011;63189;51.240;9.964;2024-02-16T05:28:59;7.85;;;4.22;;
54909;SDS011;63189;51.240;9.964;2024-02-16T05:31:24;6.78;;;4.07;;
54909;SDS011;63189;51.240;9.964;2024-02-16T05:33:50;5.55;;;3.35;;
54909;SDS011;63189;51.240;9.964;2024-02-16T05:36:17;5.63;;;3.53;;
54909;SDS011;63189;51.240;9.964;2024-02-16T05:38:46;6.38;;;4.00;;
54909;SDS011;63189;51.240;9.964;2024-02-16T05:41:12;5.80;;;4.00;;
54909;SDS011;63189;51.240;9.964;2024-02-16T05:43:37;5.30;;;4.10;;
54909;SDS011;63189;51.240;9.964;2024-02-16T05:46:03;7.07;;;4.53;;
54909;SDS011;63189;51.240;9.964;2024-02-16T05:48:32;6.60;;;4.38;;
54909;SDS011;63189;51.240;9.964;2024-02-16T05:51:04;6.95;;;4.82;;
54909;SDS011;63189;51.240;9.964;2024-02-16T05:53:30;6.32;;;4.13;;
54909;SDS011;63189;51.240;9.964;2024-02-16T05:55:56;6.53;;;4.32;;
54909;SDS011;63189;51.240;9.964;2024-02-16T05:58:21;8.30;;;4.43;;
54909;SDS011;63189;51.240;9.964;2024-02-16T06:00:48;5.70;;;3.63;;
54909;SDS011;63189;51.240;9.964;2024-02-16T06:03:13;9.10;;;4.30;;
54909;SDS011;63189;51.240;9.964;2024-02-16T06:05:39;7.40;;;4.03;;
54909;SDS011;63189;51.240;9.964;2024-02-16T06:08:05;6.10;;;4.00;;
54909;SDS011;63189;51.240;9.964;2024-02-16T06:10:32;8.25;;;3.97;;
54909;SDS011;63189;51.240;9.964;2024-02-16T06:12:57;12.15;;;3.72;;
54909;SDS011;63189;51.240;9.964;2024-02-16T06:15:23;6.20;;;3.95;;
54909;SDS011;63189;51.240;9.964;2024-02-16T06:17:48;8.32;;;4.03;;
54909;SDS011;63189;51.240;9.964;2024-02-16T06:20:14;5.00;;;3.67;;
54909;SDS011;63189;51.240;9.964;2024-02-16T06:22:40;7.10;;;4.15;;
54909;SDS011;63189;51.240;9.964;2024-02-16T06:25:05;6.63;;;4.00;;
54909;SDS011;63189;51.240;9.964;2024-02-16T06:27:31;10.55;;;4.07;;
54909;SDS011;63189;51.240;9.964;2024-02-16T06:29:57;7.10;;;4.03;;
54909;SDS011;63189;51.240;9.964;2024-02-16T06:32:22;6.38;;;4.00;;
54909;SDS011;63189;51.240;9.964;2024-02-16T06:34:48;9.90;;;4.47;;
54909;SDS011;63189;51.240;9.964;2024-02-16T06:37:13;8.45;;;4.57;;
54909;SDS011;63189;51.240;9.964;2024-02-16T06:39:38;7.65;;;4.43;;
54909;SDS011;63189;51.240;9.964;2024-02-16T06:42:04;8.80;;;4.65;;
54909;SDS011;63189;51.240;9.964;2024-02-16T06:44:30;10.35;;;5.05;;
54909;SDS011;63189;51.240;9.964;2024-02-16T06:46:55;8.13;;;4.13;;
54909;SDS011;63189;51.240;9.964;2024-02-16T06:49:21;8.35;;;4.40;;
54909;SDS011;63189;51.240;9.964;2024-02-16T06:51:46;10.05;;;5.20;;
54909;SDS011;63189;51.240;9.964;2024-02-16T06:54:11;8.48;;;4.80;;
54909;SDS011;63189;51.240;9.964;2024-02-16T06:56:37;6.80;;;4.25;;
54909;SDS011;63189;51.240;9.964;2024-02-16T06:59:03;7.68;;;4.00;;
54909;SDS011;63189;51.240;9.964;2024-02-16T07:01:28;6.97;;;4.70;;
54909;SDS011;63189;51.240;9.964;2024-02-16T07:03:54;9.75;;;5.65;;
54909;SDS011;63189;51.240;9.964;2024-02-16T07:06:19;8.57;;;5.00;;
54909;SDS011;63189;51.240;9.964;2024-02-16T07:08:45;11.35;;;5.72;;
54909;SDS011;63189;51.240;9.964;2024-02-16T07:11:10;8.38;;;5.07;;
54909;SDS011;63189;51.240;9.964;2024-02-16T07:13:39;9.32;;;5.80;;
54909;SDS011;63189;51.240;9.964;2024-02-16T07:16:05;6.88;;;5.28;;
54909;SDS011;63189;51.240;9.964;2024-02-16T07:18:34;10.32;;;5.85;;
54909;SDS011;63189;51.240;9.964;2024-02-16T07:21:00;9.75;;;5.78;;
54909;SDS011;63189;51.240;9.964;2024-02-16T07:23:26;8.68;;;5.10;;
54909;SDS011;63189;51.240;9.964;2024-02-16T07:25:51;8.35;;;5.22;;
54909;SDS011;63189;51.240;9.964;2024-02-16T07:28:20;8.80;;;5.25;;
54909;SDS011;63189;51.240;9.964;2024-02-16T07:30:45;8.70;;;5.50;;
54909;SDS011;63189;51.240;9.964;2024-02-16T07:33:11;9.98;;;5.80;;
54909;SDS011;63189;51.240;9.964;2024-02-16T07:35:36;8.55;;;5.63;;
54909;SDS011;63189;51.240;9.964;2024-02-16T07:38:03;7.00;;;5.13;;
54909;SDS011;63189;51.240;9.964;2024-02-16T07:40:28;9.05;;;5.20;;
54909;SDS011;63189;51.240;9.964;2024-02-16T07:42:54;8.13;;;5.43;;
54909;SDS011;63189;51.240;9.964;2024-02-16T07:45:19;7.32;;;4.90;;
54909;SDS011;63189;51.240;9.964;2024-02-16T07:47:45;10.10;;;5.40;;
54909;SDS011;63189;51.240;9.964;2024-02-16T07:50:11;7.22;;;5.25;;
54909;SDS011;63189;51.240;9.964;2024-02-16T07:52:37;8.38;;;5.05;;
54909;SDS011;63189;51.240;9.964;2024-02-16T07:55:03;8.50;;;5.22;;
54909;SDS011;63189;51.240;9.964;2024-02-16T07:57:29;8.95;;;5.20;;
54909;SDS011;63189;51.240;9.964;2024-02-16T07:59:55;8.93;;;4.80;;
54909;SDS011;63189;51.240;9.964;2024-02-16T08:02:21;8.48;;;5.32;;
54909;SDS011;63189;51.240;9.964;2024-02-16T08:04:49;9.85;;;5.53;;
54909;SDS011;63189;51.240;9.964;2024-02-16T08:07:16;7.78;;;5.47;;
54909;SDS011;63189;51.240;9.964;2024-02-16T08:09:47;9.00;;;5.50;;
54909;SDS011;63189;51.240;9.964;2024-02-16T08:12:14;8.38;;;4.68;;
54909;SDS011;63189;51.240;9.964;2024-02-16T08:14:39;7.05;;;4.30;;
54909;SDS011;63189;51.240;9.964;2024-02-16T08:17:05;5.90;;;4.07;;
54909;SDS011;63189;51.240;9.964;2024-02-16T08:19:32;8.32;;;4.03;;
54909;SDS011;63189;51.240;9.964;2024-02-16T08:21:59;8.40;;;5.07;;
54909;SDS011;63189;51.240;9.964;2024-02-16T08:24:25;5.75;;;3.97;;
54909;SDS011;63189;51.240;9.964;2024-02-16T08:26:51;9.15;;;4.53;;
54909;SDS011;63189;51.240;9.964;2024-02-16T08:29:16;8.77;;;4.90;;
54909;SDS011;63189;51.240;9.964;2024-02-16T08:31:41;6.70;;;3.92;;
54909;SDS011;63189;51.240;9.964;2024-02-16T08:34:09;4.40;;;3.17;;
54909;SDS011;63189;51.240;9.964;2024-02-16T08:36:35;6.07;;;3.45;;
54909;SDS011;63189;51.240;9.964;2024-02-16T08:39:03;5.32;;;3.42;;
54909;SDS011;63189;51.240;9.964;2024-02-16T08:41:28;5.78;;;3.38;;
54909;SDS011;63189;51.240;9.964;2024-02-16T08:43:54;6.30;;;3.45;;
54909;SDS011;63189;51.240;9.964;2024-02-16T08:46:20;5.75;;;3.20;;
54909;SDS011;63189;51.240;9.964;2024-02-16T08:48:45;5.35;;;2.85;;
54909;SDS011;63189;51.240;9.964;2024-02-16T08:51:11;4.13;;;2.78;;
54909;SDS011;63189;51.240;9.964;2024-02-16T08:53:36;5.57;;;3.17;;
54909;SDS011;63189;51.240;9.964;2024-02-16T08:56:01;5.13;;;2.70;;
54909;SDS011;63189;51.240;9.964;2024-02-16T08:58:27;4.63;;;3.03;;
54909;SDS011;63189;51.240;9.964;2024-02-16T09:00:52;4.38;;;2.90;;
54909;SDS011;63189;51.240;9.964;2024-02-16T09:03:18;4.47;;;2.35;;
54909;SDS011;63189;51.240;9.964;2024-02-16T09:05:43;6.70;;;2.70;;
54909;SDS011;63189;51.240;9.964;2024-02-16T09:08:09;6.53;;;2.67;;
54909;SDS011;63189;51.240;9.964;2024-02-16T09:10:34;4.68;;;2.35;;
54909;SDS011;63189;51.240;9.964;2024-02-16T09:13:00;7.68;;;2.88;;
54909;SDS011;63189;51.240;9.964;2024-02-16T09:15:25;3.50;;;2.40;;
54909;SDS011;63189;51.240;9.964;2024-02-16T09:17:51;5.05;;;2.90;;
54909;SDS011;63189;51.240;9.964;2024-02-16T09:20:16;3.42;;;2.10;;
54909;SDS011;63189;51.240;9.964;2024-02-16T09:22:47;5.45;;;3.00;;
54909;SDS011;63189;51.240;9.964;2024-02-16T09:25:13;4.47;;;2.50;;
54909;SDS011;63189;51.240;9.964;2024-02-16T09:27:39;5.05;;;2.22;;
54909;SDS011;63189;51.240;9.964;2024-02-16T09:30:07;7.57;;;2.97;;
54909;SDS011;63189;51.240;9.964;2024-02-16T09:32:32;4.97;;;2.72;;
54909;SDS011;63189;51.240;9.964;2024-02-16T09:34:58;4.78;;;2.33;;
54909;SDS011;63189;51.240;9.964;2024-02-16T09:37:23;5.22;;;2.30;;
54909;SDS011;63189;51.240;9.964;2024-02-16T09:39:48;8.38;;;2.55;;
54909;SDS011;63189;51.240;9.964;2024-02-16T09:42:14;6.82;;;2.65;;
54909;SDS011;63189;51.240;9.964;2024-02-16T09:44:39;3.88;;;2.20;;
54909;SDS011;63189;51.240;9.964;2024-02-16T09:47:06;4.90;;;2.28;;
54909;SDS011;63189;51.240;9.964;2024-02-16T09:49:36;4.13;;;2.10;;
54909;SDS011;63189;51.240;9.964;2024-02-16T09:52:02;5.18;;;1.60;;
54909;SDS011;63189;51.240;9.964;2024-02-16T09:54:33;4.93;;;1.80;;
54909;SDS011;63189;51.240;9.964;2024-02-16T09:57:02;4.88;;;1.95;;
54909;SDS011;63189;51.240;9.964;2024-02-16T09:59:29;4.32;;;2.22;;
54909;SDS011;63189;51.240;9.964;2024-02-16T10:01:59;5.95;;;2.10;;
54909;SDS011;63189;51.240;9.964;2024-02-16T10:04:25;3.53;;;2.00;;
54909;SDS011;63189;51.240;9.964;2024-02-16T10:06:51;6.20;;;2.40;;
54909;SDS011;63189;51.240;9.964;2024-02-16T10:09:24;5.15;;;1.95;;
54909;SDS011;63189;51.240;9.964;2024-02-16T10:11:51;4.43;;;1.80;;
54909;SDS011;63189;51.240;9.964;2024-02-16T10:14:16;6.68;;;2.22;;
54909;SDS011;63189;51.240;9.964;2024-02-16T10:16:44;5.40;;;2.08;;
54909;SDS011;63189;51.240;9.964;2024-02-16T10:19:10;8.13;;;2.10;;
54909;SDS011;63189;51.240;9.964;2024-02-16T10:21:36;4.22;;;2.20;;
54909;SDS011;63189;51.240;9.964;2024-02-16T10:24:02;4.35;;;1.80;;
54909;SDS011;63189;51.240;9.964;2024-02-16T10:26:31;5.82;;;1.88;;
54909;SDS011;63189;51.240;9.964;2024-02-16T10:28:57;3.88;;;1.67;;
54909;SDS011;63189;51.240;9.964;2024-02-16T10:31:23;6.00;;;1.90;;
54909;SDS011;63189;51.240;9.964;2024-02-16T10:33:57;3.40;;;1.95;;
54909;SDS011;63189;51.240;9.964;2024-02-16T10:36:23;4.32;;;1.90;;
54909;SDS011;63189;51.240;9.964;2024-02-16T10:38:50;4.80;;;1.75;;
54909;SDS011;63189;51.240;9.964;2024-02-16T10:41:17;4.43;;;1.63;;
54909;SDS011;63189;51.240;9.964;2024-02-16T10:43:45;6.68;;;2.10;;
54909;SDS011;63189;51.240;9.964;2024-02-16T10:46:14;5.07;;;1.95;;
54909;SDS011;63189;51.240;9.964;2024-02-16T10:48:41;4.32;;;1.95;;
54909;SDS011;63189;51.240;9.964;2024-02-16T10:51:07;2.40;;;1.67;;
54909;SDS011;63189;51.240;9.964;2024-02-16T10:53:34;4.78;;;1.83;;
54909;SDS011;63189;51.240;9.964;2024-02-16T10:56:01;3.25;;;1.60;;
54909;SDS011;63189;51.240;9.964;2024-02-16T10:58:27;3.35;;;1.83;;
54909;SDS011;63189;51.240;9.964;2024-02-16T11:00:55;4.65;;;1.70;;
54909;SDS011;63189;51.240;9.964;2024-02-16T11:03:21;4.47;;;1.63;;
54909;SDS011;63189;51.240;9.964;2024-02-16T11:05:49;7.75;;;2.53;;
54909;SDS011;63189;51.240;9.964;2024-02-16T11:08:15;2.50;;;1.83;;
54909;SDS011;63189;51.240;9.964;2024-02-16T11:10:58;3.35;;;1.90;;
54909;SDS011;63189;51.240;9.964;2024-02-16T11:13:24;3.85;;;1.83;;
54909;SDS011;63189;51.240;9.964;2024-02-16T11:16:23;4.40;;;2.05;;
54909;SDS011;63189;51.240;9.964;2024-02-16T11:18:43;5.82;;;1.80;;
54909;SDS011;63189;51.240;9.964;2024-02-16T11:21:12;4.80;;;2.08;;
54909;SDS011;63189;51.240;9.964;2024-02-16T11:23:37;9.55;;;2.30;;
54909;SDS011;63189;51.240;9.964;2024-02-16T11:26:05;3.35;;;1.70;;
54909;SDS011;63189;51.240;9.964;2024-02-16T11:28:36;4.43;;;1.90;;
54909;SDS011;63189;51.240;9.964;2024-02-16T11:31:03;3.30;;;1.65;;
54909;SDS011;63189;51.240;9.964;2024-02-16T11:33:29;3.45;;;1.60;;
54909;SDS011;63189;51.240;9.964;2024-02-16T11:35:58;3.38;;;1.88;;
54909;SDS011;63189;51.240;9.964;2024-02-16T11:38:30;2.70;;;1.80;;
54909;SDS011;63189;51.240;9.964;2024-02-16T11:40:57;2.65;;;1.58;;
54909;SDS011;63189;51.240;9.964;2024-02-16T11:43:24;8.25;;;2.00;;
54909;SDS011;63189;51.240;9.964;2024-02-16T11:45:50;3.42;;;2.05;;
54909;SDS011;63189;51.240;9.964;2024-02-16T11:48:20;4.45;;;1.80;;
54909;SDS011;63189;51.240;9.964;2024-02-16T11:50:50;2.90;;;1.80;;
54909;SDS011;63189;51.240;9.964;2024-02-16T11:53:23;4.63;;;1.90;;
54909;SDS011;63189;51.240;9.964;2024-02-16T11:55:50;5.40;;;2.17;;
54909;SDS011;63189;51.240;9.964;2024-02-16T11:58:16;4.47;;;1.65;;
54909;SDS011;63189;51.240;9.964;2024-02-16T12:00:43;3.63;;;1.98;;
54909;SDS011;63189;51.240;9.964;2024-02-16T12:03:08;6.03;;;1.75;;
54909;SDS011;63189;51.240;9.964;2024-02-16T12:05:33;5.45;;;1.80;;
54909;SDS011;63189;51.240;9.964;2024-02-16T12:07:59;4.72;;;1.80;;
54909;SDS011;63189;51.240;9.964;2024-02-16T12:10:24;4.03;;;1.90;;
54909;SDS011;63189;51.240;9.964;2024-02-16T12:12:51;4.53;;;1.95;;
54909;SDS011;63189;51.240;9.964;2024-02-16T12:15:17;3.90;;;1.73;;
54909;SDS011;63189;51.240;9.964;2024-02-16T12:17:44;5.10;;;1.60;;
54909;SDS011;63189;51.240;9.964;2024-02-16T12:20:11;3.17;;;1.65;;
54909;SDS011;63189;51.240;9.964;2024-02-16T12:22:38;2.42;;;1.50;;
54909;SDS011;63189;51.240;9.964;2024-02-16T12:25:04;3.00;;;1.42;;
54909;SDS011;63189;51.240;9.964;2024-02-16T12:27:29;3.63;;;2.40;;
54909;SDS011;63189;51.240;9.964;2024-02-16T12:29:55;7.85;;;2.50;;
54909;SDS011;63189;51.240;9.964;2024-02-16T12:32:20;4.53;;;2.30;;
54909;SDS011;63189;51.240;9.964;2024-02-16T12:34:46;10.73;;;5.82;;
54909;SDS011;63189;51.240;9.964;2024-02-16T12:37:11;5.68;;;1.83;;
54909;SDS011;63189;51.240;9.964;2024-02-16T12:39:36;4.70;;;1.70;;
54909;SDS011;63189;51.240;9.964;2024-02-16T12:42:02;5.70;;;2.35;;
54909;SDS011;63189;51.240;9.964;2024-02-16T12:44:28;3.90;;;2.40;;
54909;SDS011;63189;51.240;9.964;2024-02-16T12:46:53;3.35;;;1.63;;
54909;SDS011;63189;51.240;9.964;2024-02-16T12:49:19;6.90;;;2.75;;
54909;SDS011;63189;51.240;9.964;2024-02-16T12:51:47;3.72;;;1.73;;
54909;SDS011;63189;51.240;9.964;2024-02-16T12:54:13;3.67;;;1.85;;
54909;SDS011;63189;51.240;9.964;2024-02-16T12:56:42;3.35;;;1.73;;
54909;SDS011;63189;51.240;9.964;2024-02-16T12:59:09;6.63;;;1.95;;
54909;SDS011;63189;51.240;9.964;2024-02-16T13:01:35;4.88;;;1.73;;
54909;SDS011;63189;51.240;9.964;2024-02-16T13:04:00;3.80;;;1.85;;
54909;SDS011;63189;51.240;9.964;2024-02-16T13:06:26;3.63;;;1.50;;
54909;SDS011;63189;51.240;9.964;2024-02-16T13:08:51;4.72;;;1.88;;
54909;SDS011;63189;51.240;9.964;2024-02-16T13:11:17;3.97;;;1.50;;
54909;SDS011;63189;51.240;9.964;2024-02-16T13:13:43;4.25;;;1.60;;
54909;SDS011;63189;51.240;9.964;2024-02-16T13:16:08;3.63;;;1.63;;
54909;SDS011;63189;51.240;9.964;2024-02-16T13:18:33;4.10;;;1.60;;
54909;SDS011;63189;51.240;9.964;2024-02-16T13:20:59;3.95;;;1.70;;
54909;SDS011;63189;51.240;9.964;2024-02-16T13:26:46;5.13;;;1.52;;
54909;SDS011;63189;51.240;9.964;2024-02-16T13:29:11;5.28;;;1.50;;
54909;SDS011;63189;51.240;9.964;2024-02-16T13:31:37;2.72;;;1.70;;
54909;SDS011;63189;51.240;9.964;2024-02-16T13:34:05;4.63;;;1.90;;
54909;SDS011;63189;51.240;9.964;2024-02-16T13:36:30;3.00;;;1.40;;
54909;SDS011;63189;51.240;9.964;2024-02-16T13:38:56;3.25;;;1.60;;
54909;SDS011;63189;51.240;9.964;2024-02-16T13:41:21;4.65;;;1.80;;
54909;SDS011;63189;51.240;9.964;2024-02-16T13:43:48;3.47;;;1.70;;
54909;SDS011;63189;51.240;9.964;2024-02-16T13:46:14;5.57;;;2.00;;
54909;SDS011;63189;51.240;9.964;2024-02-16T13:48:39;3.15;;;1.63;;
54909;SDS011;63189;51.240;9.964;2024-02-16T13:51:06;4.95;;;1.98;;
54909;SDS011;63189;51.240;9.964;2024-02-16T13:53:32;7.20;;;1.70;;
54909;SDS011;63189;51.240;9.964;2024-02-16T13:55:57;6.40;;;2.45;;
54909;SDS011;63189;51.240;9.964;2024-02-16T13:58:25;4.15;;;2.00;;
54909;SDS011;63189;51.240;9.964;2024-02-16T14:00:51;6.18;;;2.88;;
54909;SDS011;63189;51.240;9.964;2024-02-16T14:03:16;8.13;;;2.30;;
54909;SDS011;63189;51.240;9.964;2024-02-16T14:05:42;6.30;;;2.08;;
54909;SDS011;63189;51.240;9.964;2024-02-16T14:08:10;7.00;;;2.38;;
54909;SDS011;63189;51.240;9.964;2024-02-16T14:10:37;6.68;;;2.03;;
54909;SDS011;63189;51.240;9.964;2024-02-16T14:13:03;5.55;;;2.05;;
54909;SDS011;63189;51.240;9.964;2024-02-16T14:15:28;6.13;;;2.70;;
54909;SDS011;63189;51.240;9.964;2024-02-16T14:17:54;7.75;;;2.40;;
54909;SDS011;63189;51.240;9.964;2024-02-16T14:20:19;7.70;;;2.20;;
54909;SDS011;63189;51.240;9.964;2024-02-16T14:22:46;5.80;;;1.95;;
54909;SDS011;63189;51.240;9.964;2024-02-16T14:25:12;3.92;;;1.75;;
54909;SDS011;63189;51.240;9.964;2024-02-16T14:27:38;5.72;;;2.28;;
54909;SDS011;63189;51.240;9.964;2024-02-16T14:30:04;3.80;;;1.85;;
54909;SDS011;63189;51.240;9.964;2024-02-16T14:32:30;8.32;;;3.10;;
54909;SDS011;63189;51.240;9.964;2024-02-16T14:34:56;4.07;;;2.00;;
54909;SDS011;63189;51.240;9.964;2024-02-16T14:37:21;5.80;;;2.17;;
54909;SDS011;63189;51.240;9.964;2024-02-16T14:39:46;8.15;;;2.35;;
54909;SDS011;63189;51.240;9.964;2024-02-16T14:42:12;7.55;;;2.20;;
54909;SDS011;63189;51.240;9.964;2024-02-16T14:44:38;7.03;;;2.42;;